Disclaimer

Please do not use the information listed here in-flight or in-navigation, as they are not provided to us by the airports but are provided by volunteers, so they might be outdated.

Search


Regions


Airport information page

No radio frequency information is available.

Airport informations:
Latitude: 09° 21' 44.68" S
Longitude: 040° 34' 08.75" W
Elevation: 1263 feet - 385 meters
Operating hours: Remarks
Operating agency: Civil government, landing fees and diplomatic clearance may be required
Timezone: UTC-3(-2DT)
Fuel: Jet A1, without icing nhibitor.

100/130 octane gasoline, leaded, MIL-L-5572F (GREEN)

Runway information:
13/31 - 10645 x 140 feet< - >3245 x 43 meters

Recent METARs:
SBPL 202000Z 15008KT CAVOK 35/12 Q1010
SBPL 202100Z 16005KT CAVOK 34/12 Q1011
SBPL 202100Z 16005KT CAVOK 34/12 Q1011

Airport on the map: